Rio Blanco — D5BO9 — position and weather

sailwx.info

Track history (hours):
 
Tides and Currents Weather Stations Pressure Air Temp Water Temp Dewpoint Dewpoint Depression Visibility Wind Speed Wind Dir Waves Ship Positions

Rio Blanco

Last reported at 2018-Feb-08 19:00 UTC. Time now 2018-Feb-20 09:50 UTC.
Position N 35°48' E 014°35'.
Warning: this ship's position is 11 days out of date.

Length 286 m; draft 11 m.

Type: Cargo ship. MMSI: 636092395.

Date/timePositionNaut miles runAvg speedWind from/ knotsBaromVisibWave heightAir tempDewpointWater temp
2018-Feb-08 19:00N 35°48' E 014°35'18 5.3
2018-Feb-08 15:30N 35°51' E 014°13'3617.8
2018-Feb-08 13:30N 36°10' E 013°35'62217.8
2018-Feb-07 02:34N 36°56' E 000°43'117.7
2018-Feb-07 02:29N 36°55' E 000°41'918.0
2018-Feb-07 02:00N 36°53' E 000°31'917.8
2018-Feb-07 01:30N 36°51' E 000°20'918.0
2018-Feb-07 01:00N 36°48' E 000°09'918.0
2018-Feb-07 00:30N 36°45' W 000°01'918.2
2018-Feb-06 23:59N 36°42' W 000°13'24618.8
2018-Feb-06 10:54N 35°59' W 005°14'821.6
2018-Feb-06 10:30N 35°58' W 005°24'247 4.9
2018-Feb-04 08:17N 37°59' W 009°53'1012.6
2018-Feb-04 07:30N 38°08' W 009°56'612.7
2018-Feb-04 07:00N 38°14' W 009°58'612.8
2018-Feb-04 06:31N 38°21' W 009°60'612.7
2018-Feb-04 06:01N 38°27' W 010°02'612.7
2018-Feb-04 05:30N 38°33' W 010°03'713.0
2018-Feb-04 05:00N 38°39' W 010°05'612.7
2018-Feb-04 04:30N 38°46' W 010°06'612.2
2018-Feb-04 04:01N 38°52' W 010°06'611.9
2018-Feb-04 03:30N 38°58' W 010°06'612.0
2018-Feb-04 03:00N 39°04' W 010°06'612.2
2018-Feb-04 02:31N 39°10' W 010°06'612.3
2018-Feb-04 02:00N 39°16' W 010°06'612.6
2018-Feb-04 01:30N 39°22' W 010°06'68714.4
2018-Feb-02 01:45N 49°47' W 003°26'313.9
2018-Feb-02 01:30N 49°49' W 003°22'714.0
2018-Feb-02 01:01N 49°52' W 003°12'713.6
2018-Feb-02 00:30N 49°56' W 003°03'612.9
2018-Feb-02 00:00N 49°59' W 002°54'612.1
2018-Feb-01 23:31N 50°01' W 002°45'611.3
2018-Feb-01 23:00N 50°02' W 002°36'10 9.9
2018-Feb-01 21:57N 50°04' W 002°21'4 8.5
2018-Feb-01 21:29N 50°05' W 002°15'15 7.7
2018-Feb-01 19:30N 50°10' W 001°52'4 8.4
2018-Feb-01 19:00N 50°11' W 001°46'5 9.4
2018-Feb-01 18:30N 50°12' W 001°39'510.6
2018-Feb-01 18:00N 50°14' W 001°31'611.9
2018-Feb-01 17:30N 50°15' W 001°22'612.9
2018-Feb-01 17:00N 50°17' W 001°12'814.1
2018-Feb-01 16:28N 50°19' W 001°01'2414.2
2018-Feb-01 14:48N 50°25' W 000°25'1712.9
2018-Feb-01 13:30N 50°30' E 000°00'612.1
2018-Feb-01 13:00N 50°31' E 000°10'611.7
2018-Feb-01 12:30N 50°33' E 000°18'611.3
2018-Feb-01 12:00N 50°34' E 000°27'1110.5
2018-Feb-01 11:00N 50°39' E 000°42'510.4
2018-Feb-01 10:30N 50°42' E 000°49'510.1
2018-Feb-01 10:00N 50°45' E 000°55'510.4
2018-Feb-01 09:30N 50°48' E 001°02'711.3
2018-Feb-01 08:50N 50°52' E 001°12'613.1
2018-Feb-01 08:24N 50°56' E 001°19'1314.7
2018-Feb-01 07:30N 51°05' E 001°33'714.8
2018-Feb-01 07:00N 51°11' E 001°41'713.7
2018-Feb-01 06:30N 51°16' E 001°47'612.8
2018-Feb-01 06:00N 51°22' E 001°51'611.5
2018-Feb-01 05:31N 51°27' E 001°57'510.8
2018-Feb-01 05:01N 51°31' E 002°02'510.2
2018-Feb-01 04:30N 51°35' E 002°08'510.0
2018-Feb-01 04:00N 51°38' E 002°13'10 9.4
2018-Feb-01 02:58N 51°46' E 002°23'9711.0
2018-Jan-31 18:07N 53°00' E 004°05'110.6
2018-Jan-31 18:00N 53°01' E 004°07'510.5
2018-Jan-31 17:30N 53°05' E 004°13'510.1
2018-Jan-31 17:00N 53°08' E 004°19'510.0
2018-Jan-31 16:30N 53°12' E 004°24'124 9.8
2018-Jan-31 03:50N 54°01' E 007°36'411.8
2018-Jan-31 03:30N 54°02' E 007°42'812.3
2018-Jan-31 02:53N 54°01' E 007°55'512.2
2018-Jan-31 02:30N 54°01' E 008°03'612.6
2018-Jan-31 02:00N 54°01' E 008°14'918.1
2018-Jan-31 01:30N 53°59' E 008°29'917.2
2018-Jan-31 00:59N 53°54' E 008°42'1111.5
2018-Jan-31 00:00N 53°51' E 009°00'611.8
2018-Jan-30 23:30N 53°53' E 009°10'4 8.7
2018-Jan-30 23:00N 53°52' E 009°17'611.3
2018-Jan-30 22:31N 53°47' E 009°23'10 9.9
2018-Jan-30 21:30N 53°39' E 009°31'510.5
2018-Jan-30 21:00N 53°35' E 009°37'611.1
2018-Jan-30 20:30N 53°34' E 009°46'510.1
2018-Jan-30 20:00N 53°33' E 009°55'3 4.8
2018-Jan-30 19:29N 53°30' E 009°56'0 0.0
2018-Jan-30 18:59N 53°30' E 009°56'0 0.0
2018-Jan-30 18:29N 53°30' E 009°56'0 0.0
2018-Jan-30 17:59N 53°30' E 009°56'0 0.0
2018-Jan-30 17:29N 53°30' E 009°56'0 0.0
2018-Jan-30 16:59N 53°30' E 009°56'0 0.0
2018-Jan-30 16:29N 53°30' E 009°56'0 0.0
2018-Jan-30 16:00N 53°30' E 009°56'0 0.0
2018-Jan-30 15:30N 53°30' E 009°56'0 0.0
2018-Jan-30 15:00N 53°30' E 009°56'0 0.0
2018-Jan-30 14:30N 53°30' E 009°56'0 0.0
2018-Jan-30 13:30N 53°30' E 009°56'0 0.0
2018-Jan-30 13:00N 53°30' E 009°56'0 0.0
2018-Jan-30 12:30N 53°30' E 009°56'0 0.0
2018-Jan-30 12:00N 53°30' E 009°56'0 0.1
2018-Jan-30 11:30N 53°30' E 009°56'0 0.0
2018-Jan-30 10:30N 53°30' E 009°56'0 0.0
2018-Jan-30 09:30N 53°30' E 009°56'0 0.0
2018-Jan-30 09:00N 53°30' E 009°56'0 0.1
2018-Jan-30 08:30N 53°30' E 009°56'0 0.0
2018-Jan-30 08:00N 53°30' E 009°56'0 0.0
2018-Jan-30 07:30N 53°30' E 009°56'0 0.0
2018-Jan-30 07:00N 53°30' E 009°56'0 0.0
2018-Jan-30 06:30N 53°30' E 009°56'0 0.0
2018-Jan-30 06:00N 53°30' E 009°56'0 0.0
2018-Jan-30 05:30N 53°30' E 009°56'0 0.0
2018-Jan-30 05:00N 53°30' E 009°56'0 0.0
2018-Jan-30 04:30N 53°30' E 009°56'0 0.0
2018-Jan-30 04:00N 53°30' E 009°56'0 0.0
2018-Jan-30 03:30N 53°30' E 009°56'0 0.0
2018-Jan-30 03:00N 53°30' E 009°56'0 0.0
2018-Jan-30 02:28N 53°30' E 009°56'0 0.0
2018-Jan-30 01:58N 53°30' E 009°56'0 0.0
2018-Jan-30 01:28N 53°30' E 009°56'0 0.0
2018-Jan-30 00:58N 53°30' E 009°56'0 0.0
2018-Jan-30 00:28N 53°30' E 009°56'0 0.0
2018-Jan-29 23:58N 53°30' E 009°56'0 0.0
2018-Jan-29 23:28N 53°30' E 009°56'0 0.0
2018-Jan-29 22:58N 53°30' E 009°56'0 0.0
2018-Jan-29 22:28N 53°30' E 009°56'0 0.1
2018-Jan-29 22:00N 53°30' E 009°56'2 4.0
2018-Jan-29 21:30N 53°32' E 009°56'5 9.6
2018-Jan-29 21:00N 53°33' E 009°48'510.3
2018-Jan-29 20:31N 53°34' E 009°40'612.0
2018-Jan-29 20:00N 53°38' E 009°32'611.4
2018-Jan-29 19:30N 53°43' E 009°28'611.3
2018-Jan-29 19:00N 53°48' E 009°23'  
Track history (hours):
 
Tides and Currents Weather Stations Pressure Air Temp Water Temp Dewpoint Dewpoint Depression Visibility Wind Speed Wind Dir Waves Ship Positions

Rio Blanco

Last reported at 2018-Feb-08 19:00 UTC. Time now 2018-Feb-20 09:50 UTC.
Position N 35°48' E 014°35'.
Warning: this ship's position is 11 days out of date.

Length 286 m; draft 11 m.

Type: Cargo ship. MMSI: 636092395.

Date/timePositionNaut miles runAvg speedWind from/ knotsBaromVisibWave heightAir tempDewpointWater temp
2018-Feb-08 19:00N 35°48' E 014°35'18 5.3
2018-Feb-08 15:30N 35°51' E 014°13'3617.8
2018-Feb-08 13:30N 36°10' E 013°35'62217.8
2018-Feb-07 02:34N 36°56' E 000°43'117.7
2018-Feb-07 02:29N 36°55' E 000°41'918.0
2018-Feb-07 02:00N 36°53' E 000°31'917.8
2018-Feb-07 01:30N 36°51' E 000°20'918.0
2018-Feb-07 01:00N 36°48' E 000°09'918.0
2018-Feb-07 00:30N 36°45' W 000°01'918.2
2018-Feb-06 23:59N 36°42' W 000°13'24618.8
2018-Feb-06 10:54N 35°59' W 005°14'821.6
2018-Feb-06 10:30N 35°58' W 005°24'247 4.9
2018-Feb-04 08:17N 37°59' W 009°53'1012.6
2018-Feb-04 07:30N 38°08' W 009°56'612.7
2018-Feb-04 07:00N 38°14' W 009°58'612.8
2018-Feb-04 06:31N 38°21' W 009°60'612.7
2018-Feb-04 06:01N 38°27' W 010°02'612.7
2018-Feb-04 05:30N 38°33' W 010°03'713.0
2018-Feb-04 05:00N 38°39' W 010°05'612.7
2018-Feb-04 04:30N 38°46' W 010°06'612.2
2018-Feb-04 04:01N 38°52' W 010°06'611.9
2018-Feb-04 03:30N 38°58' W 010°06'612.0
2018-Feb-04 03:00N 39°04' W 010°06'612.2
2018-Feb-04 02:31N 39°10' W 010°06'612.3
2018-Feb-04 02:00N 39°16' W 010°06'612.6
2018-Feb-04 01:30N 39°22' W 010°06'68714.4
2018-Feb-02 01:45N 49°47' W 003°26'313.9
2018-Feb-02 01:30N 49°49' W 003°22'714.0
2018-Feb-02 01:01N 49°52' W 003°12'713.6
2018-Feb-02 00:30N 49°56' W 003°03'612.9
2018-Feb-02 00:00N 49°59' W 002°54'612.1
2018-Feb-01 23:31N 50°01' W 002°45'611.3
2018-Feb-01 23:00N 50°02' W 002°36'10 9.9
2018-Feb-01 21:57N 50°04' W 002°21'4 8.5
2018-Feb-01 21:29N 50°05' W 002°15'15 7.7
2018-Feb-01 19:30N 50°10' W 001°52'4 8.4
2018-Feb-01 19:00N 50°11' W 001°46'5 9.4
2018-Feb-01 18:30N 50°12' W 001°39'510.6
2018-Feb-01 18:00N 50°14' W 001°31'611.9
2018-Feb-01 17:30N 50°15' W 001°22'612.9
2018-Feb-01 17:00N 50°17' W 001°12'814.1
2018-Feb-01 16:28N 50°19' W 001°01'2414.2
2018-Feb-01 14:48N 50°25' W 000°25'1712.9
2018-Feb-01 13:30N 50°30' E 000°00'612.1
2018-Feb-01 13:00N 50°31' E 000°10'611.7
2018-Feb-01 12:30N 50°33' E 000°18'611.3
2018-Feb-01 12:00N 50°34' E 000°27'1110.5
2018-Feb-01 11:00N 50°39' E 000°42'510.4
2018-Feb-01 10:30N 50°42' E 000°49'510.1
2018-Feb-01 10:00N 50°45' E 000°55'510.4
2018-Feb-01 09:30N 50°48' E 001°02'711.3
2018-Feb-01 08:50N 50°52' E 001°12'613.1
2018-Feb-01 08:24N 50°56' E 001°19'1314.7
2018-Feb-01 07:30N 51°05' E 001°33'714.8
2018-Feb-01 07:00N 51°11' E 001°41'713.7
2018-Feb-01 06:30N 51°16' E 001°47'612.8
2018-Feb-01 06:00N 51°22' E 001°51'611.5
2018-Feb-01 05:31N 51°27' E 001°57'510.8
2018-Feb-01 05:01N 51°31' E 002°02'510.2
2018-Feb-01 04:30N 51°35' E 002°08'510.0
2018-Feb-01 04:00N 51°38' E 002°13'10 9.4
2018-Feb-01 02:58N 51°46' E 002°23'9711.0
2018-Jan-31 18:07N 53°00' E 004°05'110.6
2018-Jan-31 18:00N 53°01' E 004°07'510.5
2018-Jan-31 17:30N 53°05' E 004°13'510.1
2018-Jan-31 17:00N 53°08' E 004°19'510.0
2018-Jan-31 16:30N 53°12' E 004°24'124 9.8
2018-Jan-31 03:50N 54°01' E 007°36'411.8
2018-Jan-31 03:30N 54°02' E 007°42'812.3
2018-Jan-31 02:53N 54°01' E 007°55'512.2
2018-Jan-31 02:30N 54°01' E 008°03'612.6
2018-Jan-31 02:00N 54°01' E 008°14'918.1
2018-Jan-31 01:30N 53°59' E 008°29'917.2
2018-Jan-31 00:59N 53°54' E 008°42'1111.5
2018-Jan-31 00:00N 53°51' E 009°00'611.8
2018-Jan-30 23:30N 53°53' E 009°10'4 8.7
2018-Jan-30 23:00N 53°52' E 009°17'611.3
2018-Jan-30 22:31N 53°47' E 009°23'10 9.9
2018-Jan-30 21:30N 53°39' E 009°31'510.5
2018-Jan-30 21:00N 53°35' E 009°37'611.1
2018-Jan-30 20:30N 53°34' E 009°46'510.1
2018-Jan-30 20:00N 53°33' E 009°55'3 4.8
2018-Jan-30 19:29N 53°30' E 009°56'0 0.0
2018-Jan-30 18:59N 53°30' E 009°56'0 0.0
2018-Jan-30 18:29N 53°30' E 009°56'0 0.0
2018-Jan-30 17:59N 53°30' E 009°56'0 0.0
2018-Jan-30 17:29N 53°30' E 009°56'0 0.0
2018-Jan-30 16:59N 53°30' E 009°56'0 0.0
2018-Jan-30 16:29N 53°30' E 009°56'0 0.0
2018-Jan-30 16:00N 53°30' E 009°56'0 0.0
2018-Jan-30 15:30N 53°30' E 009°56'0 0.0
2018-Jan-30 15:00N 53°30' E 009°56'0 0.0
2018-Jan-30 14:30N 53°30' E 009°56'0 0.0
2018-Jan-30 13:30N 53°30' E 009°56'0 0.0
2018-Jan-30 13:00N 53°30' E 009°56'0 0.0
2018-Jan-30 12:30N 53°30' E 009°56'0 0.0
2018-Jan-30 12:00N 53°30' E 009°56'0 0.1
2018-Jan-30 11:30N 53°30' E 009°56'0 0.0
2018-Jan-30 10:30N 53°30' E 009°56'0 0.0
2018-Jan-30 09:30N 53°30' E 009°56'0 0.0
2018-Jan-30 09:00N 53°30' E 009°56'0 0.1
2018-Jan-30 08:30N 53°30' E 009°56'0 0.0
2018-Jan-30 08:00N 53°30' E 009°56'0 0.0
2018-Jan-30 07:30N 53°30' E 009°56'0 0.0
2018-Jan-30 07:00N 53°30' E 009°56'0 0.0
2018-Jan-30 06:30N 53°30' E 009°56'0 0.0
2018-Jan-30 06:00N 53°30' E 009°56'0 0.0
2018-Jan-30 05:30N 53°30' E 009°56'0 0.0
2018-Jan-30 05:00N 53°30' E 009°56'0 0.0
2018-Jan-30 04:30N 53°30' E 009°56'0 0.0
2018-Jan-30 04:00N 53°30' E 009°56'0 0.0
2018-Jan-30 03:30N 53°30' E 009°56'0 0.0
2018-Jan-30 03:00N 53°30' E 009°56'0 0.0
2018-Jan-30 02:28N 53°30' E 009°56'0 0.0
2018-Jan-30 01:58N 53°30' E 009°56'0 0.0
2018-Jan-30 01:28N 53°30' E 009°56'0 0.0
2018-Jan-30 00:58N 53°30' E 009°56'0 0.0
2018-Jan-30 00:28N 53°30' E 009°56'0 0.0
2018-Jan-29 23:58N 53°30' E 009°56'0 0.0
2018-Jan-29 23:28N 53°30' E 009°56'0 0.0
2018-Jan-29 22:58N 53°30' E 009°56'0 0.0
2018-Jan-29 22:28N 53°30' E 009°56'0 0.1
2018-Jan-29 22:00N 53°30' E 009°56'2 4.0
2018-Jan-29 21:30N 53°32' E 009°56'5 9.6
2018-Jan-29 21:00N 53°33' E 009°48'510.3
2018-Jan-29 20:31N 53°34' E 009°40'612.0
2018-Jan-29 20:00N 53°38' E 009°32'611.4
2018-Jan-29 19:30N 53°43' E 009°28'611.3
2018-Jan-29 19:00N 53°48' E 009°23'  

Dump ship's entire track history